Time;durP1;ratioP1;P1;durP2;ratioP2;P2;SDS_P1;SDS_P2;PMS_P1;PMS_P2;Temp;Humidity;BMP_temperature;BMP_pressure;BME280_temperature;BME280_humidity;BME280_pressure;Samples;Min_cycle;Max_cycle;Signal;HPM_P1;HPM_P2
2022/04/12 00:01:33;;;;;;;;;;;;;;;25.43;33.65;93874.69;5035415;28;7248;-70
2022/04/12 00:04:01;;;;;;;;;;;;;;;25.45;33.81;93865.19;5047127;28;7860;-70
2022/04/12 00:06:27;;;;;;;;;;;;;;;25.45;33.99;93865.19;5050810;28;7995;-70
2022/04/12 00:08:53;;;;;;;;;;;;;;;25.43;33.83;93857.44;5050121;28;7086;-70
2022/04/12 00:11:20;;;;;;;;;;;;;;;25.43;33.74;93860.19;5041576;28;7678;-70
2022/04/12 00:13:46;;;;;;;;;;;;;;;25.41;33.74;93855.19;5052956;28;9104;-70
2022/04/12 00:16:24;;;;;;;;;;;;;;;25.41;33.98;93857.94;5037714;28;7240;-70
2022/04/12 00:19:02;;;;;;;;;;;;;;;25.42;33.99;93855.97;5043764;28;9116;-70
2022/04/12 00:22:19;;;;;;;;;;;;;;;25.42;34.38;93851.16;5048931;28;7023;-70
2022/04/12 00:24:45;;;;;;;;;;;;;;;25.41;33.52;93848.91;5049712;28;7620;-70
2022/04/12 00:27:45;;;;;;;;;;;;;;;25.41;34.42;93849.66;5035549;28;7397;-70
2022/04/12 00:30:12;;;;;;;;;;;;;;;25.41;34.06;93848.91;4970498;28;8675;-70
2022/04/12 00:32:39;;;;;;;;;;;;;;;25.41;33.60;93846.16;4963348;28;7892;-70
2022/04/12 00:35:07;;;;;;;;;;;;;;;25.41;34.02;93844.16;4968256;28;7276;-70
2022/04/12 00:37:33;;;;;;;;;;;;;;;25.38;33.98;93841.72;4972759;28;7497;-71
2022/04/12 00:40:00;;;;;;;;;;;;;;;25.40;33.52;93841.94;4969337;28;7227;-70
2022/04/12 00:42:26;;;;;;;;;;;;;;;25.39;33.60;93840.44;4965379;28;8552;-70
2022/04/12 00:44:52;;;;;;;;;;;;;;;25.39;34.46;93840.44;4965575;28;9071;-70
2022/04/12 00:47:22;;;;;;;;;;;;;;;25.40;34.08;93841.94;4963536;28;6986;-70
2022/04/12 00:49:49;;;;;;;;;;;;;;;25.38;34.56;93849.97;4973380;28;9847;-70
2022/04/12 00:52:28;;;;;;;;;;;;;;;25.40;34.34;93852.97;4989987;28;7046;-71
2022/04/12 00:55:39;;;;;;;;;;;;;;;25.39;33.42;93845.94;4970457;28;9171;-70
2022/04/12 00:58:12;;;;;;;;;;;;;;;25.35;33.92;93843.50;4972495;28;9473;-70
2022/04/12 01:00:38;;;;;;;;;;;;;;;25.35;33.81;93842.75;4977599;28;7888;-70
2022/04/12 01:03:07;;;;;;;;;;;;;;;25.37;33.84;93849.22;4964166;28;9450;-70
2022/04/12 01:05:35;;;;;;;;;;;;;;;25.38;34.13;93850.69;4979756;28;7230;-70
2022/04/12 01:08:02;;;;;;;;;;;;;;;25.34;33.98;93855.78;5052345;28;8331;-70
2022/04/12 01:10:29;;;;;;;;;;;;;;;25.36;34.30;93850.47;5048082;28;7195;-70
2022/04/12 01:12:55;;;;;;;;;;;;;;;25.35;34.25;93851.78;5048850;28;9106;-70
2022/04/12 01:15:28;;;;;;;;;;;;;;;25.35;34.05;93857.28;5060051;28;7218;-70
2022/04/12 01:18:10;;;;;;;;;;;;;;;25.36;34.32;93849.72;5046649;28;9506;-70
2022/04/12 01:20:48;;;;;;;;;;;;;;;25.35;33.70;93849.00;5040029;28;7098;-70
2022/04/12 01:24:10;;;;;;;;;;;;;;;25.35;34.36;93859.28;5033663;28;6997;-70
2022/04/12 01:26:51;;;;;;;;;;;;;;;25.34;33.90;93855.03;5000973;28;8810;-70
2022/04/12 01:29:36;;;;;;;;;;;;;;;25.31;34.31;93843.06;5019701;28;7249;-70
2022/04/12 01:32:07;;;;;;;;;;;;;;;25.34;34.33;93857.78;5006850;28;9132;-70
2022/04/12 01:35:03;;;;;;;;;;;;;;;25.34;34.43;93844.00;5027731;28;6958;-70
2022/04/12 01:37:40;;;;;;;;;;;;;;;25.32;33.96;93852.06;5029166;28;8938;-70
2022/04/12 01:40:17;;;;;;;;;;;;;;;25.33;34.29;93845.28;5016476;28;8936;-70
2022/04/12 01:42:45;;;;;;;;;;;;;;;25.32;33.84;93863.81;5004924;28;7905;-70
2022/04/12 01:45:11;;;;;;;;;;;;;;;25.33;33.77;93870.81;5014757;28;9148;-70
2022/04/12 01:47:39;;;;;;;;;;;;;;;25.32;33.94;93871.31;5024115;28;9171;-70
2022/04/12 01:50:35;;;;;;;;;;;;;;;25.33;33.58;93870.06;5006882;28;7233;-71
2022/04/12 01:53:02;;;;;;;;;;;;;;;25.30;33.75;93866.34;5019737;28;7174;-70
2022/04/12 01:55:35;;;;;;;;;;;;;;;25.29;33.48;93858.63;5024157;28;9084;-70
2022/04/12 01:58:10;;;;;;;;;;;;;;;25.29;33.56;93861.38;5021041;28;8868;-70
2022/04/12 02:00:40;;;;;;;;;;;;;;;25.29;33.36;93853.84;5021726;28;7290;-70
2022/04/12 02:03:11;;;;;;;;;;;;;;;25.28;34.00;93857.13;5039483;28;7882;-70
2022/04/12 02:05:39;;;;;;;;;;;;;;;25.28;33.67;93851.59;5036180;28;9213;-70
2022/04/12 02:08:06;;;;;;;;;;;;;;;25.26;33.95;93846.63;5037064;28;7257;-71
2022/04/12 02:10:32;;;;;;;;;;;;;;;25.27;33.45;93839.13;5042817;28;9184;-70
2022/04/12 02:13:00;;;;;;;;;;;;;;;25.24;34.11;93848.41;5040898;28;7433;-70
2022/04/12 02:15:29;;;;;;;;;;;;;;;25.24;33.98;93851.91;5038595;28;9278;-70
2022/04/12 02:18:27;;;;;;;;;;;;;;;25.23;34.24;93855.16;5047601;28;6991;-70
2022/04/12 02:21:01;;;;;;;;;;;;;;;25.22;34.07;93850.94;5027277;28;8680;-70
2022/04/12 02:23:48;;;;;;;;;;;;;;;25.24;34.39;93848.41;5035665;28;7270;-70
2022/04/12 02:26:34;;;;;;;;;;;;;;;25.21;33.54;93847.44;5050922;28;9520;-71
2022/04/12 02:29:02;;;;;;;;;;;;;;;25.21;34.09;93841.94;5045490;28;7037;-70
2022/04/12 02:31:43;;;;;;;;;;;;;;;25.19;34.16;93844.47;5033816;28;9406;-70
2022/04/12 02:34:10;;;;;;;;;;;;;;;25.18;34.15;93845.00;5047174;28;9177;-70
2022/04/12 02:37:10;;;;;;;;;;;;;;;25.19;34.21;93846.47;5045063;28;7244;-70
2022/04/12 02:39:46;;;;;;;;;;;;;;;25.21;33.94;93849.44;4975322;28;9100;-70
2022/04/12 02:42:29;;;;;;;;;;;;;;;25.17;33.99;93849.75;4979300;28;9591;-70
2022/04/12 02:45:07;;;;;;;;;;;;;;;25.19;34.40;93855.47;4993412;28;7474;-70
2022/04/12 02:47:34;;;;;;;;;;;;;;;25.19;33.47;93849.97;5005512;28;9165;-70
2022/04/12 02:50:15;;;;;;;;;;;;;;;25.21;34.38;93846.69;5002101;28;7024;-71
2022/04/12 02:52:52;;;;;;;;;;;;;;;25.18;33.94;93853.25;5005934;28;9236;-70
2022/04/12 02:55:27;;;;;;;;;;;;;;;25.17;34.00;93858.00;4989422;28;7333;-70
2022/04/12 02:58:05;;;;;;;;;;;;;;;25.18;33.64;93853.25;4998356;28;7172;-70
2022/04/12 03:00:39;;;;;;;;;;;;;;;25.18;34.08;93851.25;5002875;28;7248;-70
2022/04/12 03:03:05;;;;;;;;;;;;;;;25.19;34.22;93846.47;4983291;28;8799;-70
2022/04/12 03:05:31;;;;;;;;;;;;;;;25.19;34.09;93849.97;4998716;28;6982;-70
2022/04/12 03:07:57;;;;;;;;;;;;;;;25.19;34.39;93838.22;4986826;28;7266;-70
2022/04/12 03:10:26;;;;;;;;;;;;;;;25.19;33.68;93829.97;4987642;28;9197;-70
2022/04/12 03:12:53;;;;;;;;;;;;;;;25.19;33.60;93838.22;5002132;28;7268;-70
2022/04/12 03:15:19;;;;;;;;;;;;;;;25.19;33.43;93840.97;5006855;28;9310;-70
2022/04/12 03:17:46;;;;;;;;;;;;;;;25.18;33.99;93845.75;5048812;28;8751;-70
2022/04/12 03:20:15;;;;;;;;;;;;;;;25.19;33.91;93841.72;5036182;28;7280;-70
2022/04/12 03:22:42;;;;;;;;;;;;;;;25.19;33.92;93840.97;5041346;28;7202;-70
2022/04/12 03:25:25;;;;;;;;;;;;;;;25.18;34.06;93842.25;5037958;28;9098;-70
2022/04/12 03:28:03;;;;;;;;;;;;;;;25.16;33.96;93839.28;5046698;28;8081;-70
2022/04/12 03:30:31;;;;;;;;;;;;;;;25.17;33.55;93840.75;5058717;28;7098;-70
2022/04/12 03:33:05;;;;;;;;;;;;;;;25.15;34.04;93837.78;5035839;28;7120;-70
2022/04/12 03:35:54;;;;;;;;;;;;;;;25.17;33.55;93832.50;5047200;28;7349;-70
2022/04/12 03:38:20;;;;;;;;;;;;;;;25.16;33.62;93837.28;5042763;28;8747;-70
2022/04/12 03:40:47;;;;;;;;;;;;;;;25.17;34.12;93838.00;5044020;28;7284;-70
2022/04/12 03:43:13;;;;;;;;;;;;;;;25.15;33.80;93832.28;5046807;28;7538;-70
2022/04/12 03:45:40;;;;;;;;;;;;;;;25.17;34.20;93840.75;5046468;28;7422;-70
2022/04/12 03:48:08;;;;;;;;;;;;;;;25.17;34.28;93849.75;5055732;28;7363;-70
2022/04/12 03:51:01;;;;;;;;;;;;;;;25.17;33.67;93843.50;5039721;28;9236;-70
2022/04/12 03:53:28;;;;;;;;;;;;;;;25.16;33.83;93836.53;5042039;28;7013;-70
2022/04/12 03:55:59;;;;;;;;;;;;;;;25.14;33.78;93834.28;5038161;28;9033;-70
2022/04/12 03:58:52;;;;;;;;;;;;;;;25.14;34.12;93836.31;5041608;28;7066;-70
2022/04/12 04:01:28;;;;;;;;;;;;;;;25.13;34.06;93830.03;4970083;28;9005;-70
2022/04/12 04:03:58;;;;;;;;;;;;;;;25.14;34.02;93836.31;4968618;28;7195;-70
2022/04/12 04:06:25;;;;;;;;;;;;;;;25.13;34.00;93834.81;4960597;28;9090;-70
2022/04/12 04:08:53;;;;;;;;;;;;;;;25.13;33.69;93818.28;4978390;28;6856;-70
2022/04/12 04:11:19;;;;;;;;;;;;;;;25.11;33.86;93816.06;4966460;28;8795;-70
2022/04/12 04:13:45;;;;;;;;;;;;;;;25.12;33.93;93828.53;4971493;28;7039;-70
2022/04/12 04:16:13;;;;;;;;;;;;;;;25.13;33.78;93826.53;4984317;28;8129;-70
2022/04/12 04:18:39;;;;;;;;;;;;;;;25.12;33.42;93827.81;4958863;28;9139;-70
2022/04/12 04:21:07;;;;;;;;;;;;;;;25.12;34.12;93838.84;4956726;28;9134;-70
2022/04/12 04:23:33;;;;;;;;;;;;;;;25.13;34.13;93826.53;4969859;28;7254;-68
2022/04/12 04:25:59;;;;;;;;;;;;;;;25.09;33.61;93826.09;4982782;28;8969;-67
2022/04/12 04:28:30;;;;;;;;;;;;;;;25.10;34.13;93827.59;4982123;28;8777;-68
2022/04/12 04:31:07;;;;;;;;;;;;;;;25.10;33.79;93836.59;4970655;28;8793;-68
2022/04/12 04:33:36;;;;;;;;;;;;;;;25.08;33.68;93830.09;4964050;28;9439;-67
2022/04/12 04:36:14;;;;;;;;;;;;;;;25.09;33.33;93829.59;4964308;28;7260;-67
2022/04/12 04:38:40;;;;;;;;;;;;;;;25.10;33.40;93835.88;5030083;28;7062;-68
2022/04/12 04:41:06;;;;;;;;;;;;;;;25.11;33.64;93837.34;5045005;28;7241;-68
2022/04/12 04:43:37;;;;;;;;;;;;;;;25.08;33.69;93827.34;5039452;28;7095;-68
2022/04/12 04:46:03;;;;;;;;;;;;;;;25.10;33.54;93830.34;5038917;28;6856;-68
2022/04/12 04:48:29;;;;;;;;;;;;;;;25.11;33.69;93827.06;5052048;28;6981;-68
2022/04/12 04:51:02;;;;;;;;;;;;;;;25.13;33.24;93832.81;5031098;28;9144;-68
2022/04/12 04:53:36;;;;;;;;;;;;;;;25.10;34.15;93825.56;5035258;28;7022;-68
2022/04/12 04:56:13;;;;;;;;;;;;;;;25.11;33.32;93827.06;5039138;28;9394;-68
2022/04/12 04:58:48;;;;;;;;;;;;;;;25.10;33.13;93824.84;5040191;28;7285;-70
2022/04/12 05:01:17;;;;;;;;;;;;;;;25.10;33.21;93824.84;5046874;28;7167;-71
2022/04/12 05:03:43;;;;;;;;;;;;;;;25.07;32.74;93826.63;5050985;28;9067;-71
2022/04/12 05:06:11;;;;;;;;;;;;;;;25.08;32.48;93828.09;5043538;28;7231;-71
2022/04/12 05:08:39;;;;;;;;;;;;;;;25.05;32.33;93833.91;5043907;28;7167;-71
2022/04/12 05:11:08;;;;;;;;;;;;;;;25.06;32.82;93827.88;5047405;28;7476;-71
2022/04/12 05:13:35;;;;;;;;;;;;;;;25.03;33.08;93826.19;5038656;28;8068;-71
2022/04/12 05:16:07;;;;;;;;;;;;;;;25.03;32.84;93839.94;5040897;28;7053;-71
2022/04/12 05:18:40;;;;;;;;;;;;;;;25.04;33.03;93824.16;5058749;28;9011;-69
2022/04/12 05:21:07;;;;;;;;;;;;;;;25.06;33.20;93825.13;5043062;28;8107;-68
2022/04/12 05:23:33;;;;;;;;;;;;;;;25.08;32.97;93827.34;5048611;28;8287;-68
2022/04/12 05:26:00;;;;;;;;;;;;;;;25.07;32.98;93826.63;5045214;28;7149;-69
2022/04/12 05:28:29;;;;;;;;;;;;;;;25.08;33.19;93827.34;5034493;28;9691;-68
2022/04/12 05:30:55;;;;;;;;;;;;;;;25.08;32.37;93841.13;5042781;28;7023;-67
2022/04/12 05:33:23;;;;;;;;;;;;;;;25.08;32.93;93841.13;5043292;28;9059;-67
2022/04/12 05:35:50;;;;;;;;;;;;;;;25.05;32.43;93847.69;5057161;28;7312;-68
2022/04/12 05:38:17;;;;;;;;;;;;;;;25.05;32.55;93844.94;5041614;28;9059;-67
2022/04/12 05:40:55;;;;;;;;;;;;;;;25.05;32.83;93834.66;5042878;28;9072;-67
2022/04/12 05:43:43;;;;;;;;;;;;;;;25.04;31.92;93846.19;5044459;28;8957;-67
2022/04/12 05:46:09;;;;;;;;;;;;;;;25.04;32.26;93848.94;5042865;28;7906;-69
2022/04/12 05:48:35;;;;;;;;;;;;;;;25.07;32.46;93850.66;5043861;28;7177;-67
2022/04/12 05:51:00;;;;;;;;;;;;;;;25.06;31.84;93843.66;5051159;28;9603;-66
2022/04/12 05:53:46;;;;;;;;;;;;;;;25.06;31.68;93846.41;5038015;28;7315;-66
2022/04/12 05:56:17;;;;;;;;;;;;;;;25.05;31.70;93850.44;5043853;28;7294;-66
2022/04/12 05:58:50;;;;;;;;;;;;;;;25.04;31.88;93846.94;5040799;28;9158;-66
2022/04/12 06:01:28;;;;;;;;;;;;;;;25.04;32.03;93843.41;5038162;28;7064;-66
2022/04/12 06:03:57;;;;;;;;;;;;;;;25.07;31.99;93847.91;5046230;28;9053;-66
2022/04/12 06:06:23;;;;;;;;;;;;;;;25.07;32.32;93837.63;5034206;28;7270;-66
2022/04/12 06:08:49;;;;;;;;;;;;;;;25.08;31.93;93841.13;5039287;28;7270;-66
2022/04/12 06:11:33;;;;;;;;;;;;;;;25.06;32.09;93841.66;5043198;28;6989;-66
2022/04/12 06:14:13;;;;;;;;;;;;;;;25.05;32.10;93848.44;5056113;28;7144;-66
2022/04/12 06:16:40;;;;;;;;;;;;;;;25.06;32.27;93844.41;5051158;28;8330;-66
2022/04/12 06:19:06;;;;;;;;;;;;;;;25.06;32.03;93846.41;5041997;28;9320;-65
2022/04/12 06:21:45;;;;;;;;;;;;;;;25.04;32.29;93843.41;5044195;28;7098;-69
2022/04/12 06:24:25;;;;;;;;;;;;;;;25.04;32.72;93849.69;5041771;28;7346;-66
2022/04/12 06:26:51;;;;;;;;;;;;;;;25.04;32.07;93848.94;5046814;28;7306;-66
2022/04/12 06:29:25;;;;;;;;;;;;;;;25.03;32.13;93853.72;5040555;28;9226;-66
2022/04/12 06:31:51;;;;;;;;;;;;;;;25.00;32.43;93859.50;5036966;28;7413;-66
2022/04/12 06:34:21;;;;;;;;;;;;;;;25.00;31.71;93862.25;5040505;28;9375;-66
2022/04/12 06:36:47;;;;;;;;;;;;;;;24.99;32.51;93858.00;5039593;28;9085;-66
2022/04/12 06:39:23;;;;;;;;;;;;;;;24.98;32.50;93856.50;5041355;28;7244;-66
2022/04/12 06:41:49;;;;;;;;;;;;;;;24.96;32.71;93851.53;5050337;28;7067;-66
2022/04/12 06:44:22;;;;;;;;;;;;;;;24.95;32.52;93846.53;5050994;28;7907;-66
2022/04/12 06:47:25;;;;;;;;;;;;;;;24.94;32.49;93851.31;5046615;28;6933;-66
2022/04/12 06:49:53;;;;;;;;;;;;;;;24.95;32.49;93846.53;5005622;28;9460;-66
2022/04/12 06:52:21;;;;;;;;;;;;;;;24.97;32.55;93852.28;5031659;28;9077;-66
2022/04/12 06:54:55;;;;;;;;;;;;;;;24.97;32.36;93850.25;5025482;28;8726;-66
2022/04/12 06:57:21;;;;;;;;;;;;;;;24.99;32.28;93855.25;5033759;28;7200;-66
2022/04/12 06:59:47;;;;;;;;;;;;;;;24.99;32.28;93853.22;5029301;28;9099;-66
2022/04/12 07:02:13;;;;;;;;;;;;;;;25.01;32.64;93853.47;5024286;28;7266;-66
2022/04/12 07:04:39;;;;;;;;;;;;;;;25.03;32.88;93850.22;5011657;28;6971;-66
2022/04/12 07:07:05;;;;;;;;;;;;;;;25.01;32.40;93856.22;5007261;28;7249;-66
2022/04/12 07:09:31;;;;;;;;;;;;;;;25.01;33.04;93858.25;5014173;28;7467;-69
2022/04/12 07:12:02;;;;;;;;;;;;;;;25.03;32.34;93855.72;5030368;28;7435;-69
2022/04/12 07:14:31;;;;;;;;;;;;;;;25.01;31.96;93849.97;5005038;28;7240;-68
2022/04/12 07:17:23;;;;;;;;;;;;;;;25.02;31.77;93854.22;5006524;28;9135;-69
2022/04/12 07:19:57;;;;;;;;;;;;;;;25.01;31.52;93858.25;4999603;28;7370;-68
2022/04/12 07:22:33;;;;;;;;;;;;;;;24.96;32.09;93853.53;5017772;28;9382;-70
2022/04/12 07:24:59;;;;;;;;;;;;;;;24.95;32.01;93863.03;5038506;28;9126;-69
2022/04/12 07:27:32;;;;;;;;;;;;;;;24.95;32.07;93858.28;5051478;28;7046;-69
2022/04/12 07:29:58;;;;;;;;;;;;;;;24.97;32.48;93863.28;5044703;28;9166;-69
2022/04/12 07:32:30;;;;;;;;;;;;;;;24.96;32.59;93862.53;5051366;28;9063;-68
2022/04/12 07:34:56;;;;;;;;;;;;;;;24.96;32.39;93856.28;5048552;28;7194;-69
2022/04/12 07:37:31;;;;;;;;;;;;;;;24.97;32.68;93860.53;5047394;28;7205;-69
2022/04/12 07:40:07;;;;;;;;;;;;;;;24.96;32.47;93856.28;5043399;28;7115;-69
2022/04/12 07:42:38;;;;;;;;;;;;;;;24.97;32.46;93857.78;5045067;28;7247;-69
2022/04/12 07:45:15;;;;;;;;;;;;;;;24.97;32.85;93855.03;5062582;28;9156;-69
2022/04/12 07:47:41;;;;;;;;;;;;;;;24.99;32.78;93853.22;5048977;28;7050;-69
2022/04/12 07:50:20;;;;;;;;;;;;;;;25.01;32.95;93861.72;5050470;28;7308;-69
2022/04/12 07:52:48;;;;;;;;;;;;;;;25.02;32.80;93862.47;5043674;28;8754;-69
2022/04/12 07:55:14;;;;;;;;;;;;;;;25.01;33.04;93861.72;5032083;28;7088;-69
2022/04/12 07:57:42;;;;;;;;;;;;;;;25.02;32.76;93873.47;5035068;28;7059;-69
2022/04/12 08:00:09;;;;;;;;;;;;;;;25.03;32.66;93872.97;5040485;28;7650;-69
2022/04/12 08:02:35;;;;;;;;;;;;;;;25.04;33.53;93868.94;5034331;28;9272;-70
2022/04/12 08:05:01;;;;;;;;;;;;;;;25.04;33.13;93871.69;5034842;28;7635;-70
2022/04/12 08:07:29;;;;;;;;;;;;;;;25.05;33.38;93866.94;5035919;28;9083;-70
2022/04/12 08:09:55;;;;;;;;;;;;;;;25.03;33.44;93861.22;5048576;28;9037;-70
2022/04/12 08:12:28;;;;;;;;;;;;;;;25.07;33.36;93869.91;5046341;28;7274;-69
2022/04/12 08:15:07;;;;;;;;;;;;;;;25.06;32.94;93869.16;5038215;28;6979;-69
2022/04/12 08:17:50;;;;;;;;;;;;;;;25.05;33.09;93858.69;5042302;28;9036;-69
2022/04/12 08:20:17;;;;;;;;;;;;;;;25.05;33.15;93862.19;5046618;28;9217;-70
2022/04/12 08:22:45;;;;;;;;;;;;;;;25.08;33.61;93866.63;5043887;28;7271;-69
2022/04/12 08:25:25;;;;;;;;;;;;;;;25.07;33.46;93862.41;5049482;28;9022;-69
2022/04/12 08:27:52;;;;;;;;;;;;;;;25.10;33.50;93869.59;5042679;28;7998;-69
2022/04/12 08:30:20;;;;;;;;;;;;;;;25.11;33.65;93865.59;5053604;28;8757;-70
2022/04/12 08:33:26;;;;;;;;;;;;;;;25.14;33.42;93869.31;5049447;28;8913;-69
2022/04/12 08:36:04;;;;;;;;;;;;;;;25.14;34.12;93863.81;4956272;28;8935;-69
2022/04/12 08:38:43;;;;;;;;;;;;;;;25.11;33.96;93854.59;4964728;28;7062;-70
2022/04/12 08:41:17;;;;;;;;;;;;;;;25.16;33.84;93858.53;4946611;28;8847;-70
2022/04/12 08:43:56;;;;;;;;;;;;;;;25.14;33.47;93864.53;4951958;28;9073;-70
2022/04/12 08:46:33;;;;;;;;;;;;;;;25.15;33.72;93874.31;4951724;28;8780;-70
2022/04/12 08:49:02;;;;;;;;;;;;;;;25.16;33.51;93866.78;4954819;28;6990;-70
2022/04/12 08:51:38;;;;;;;;;;;;;;;25.18;33.94;93862.25;4954915;28;7103;-70
2022/04/12 08:54:06;;;;;;;;;;;;;;;25.18;33.45;93869.78;4945330;28;8616;-70
2022/04/12 08:56:33;;;;;;;;;;;;;;;25.18;33.09;93870.53;4958743;28;9162;-70
2022/04/12 08:58:59;;;;;;;;;;;;;;;25.18;33.59;93865.00;4930755;28;7512;-70
2022/04/12 09:01:25;;;;;;;;;;;;;;;25.16;33.35;93861.28;4957331;28;7280;-69
2022/04/12 09:03:51;;;;;;;;;;;;;;;25.08;32.93;93861.13;4949308;28;8991;-69
2022/04/12 09:06:20;;;;;;;;;;;;;;;25.07;32.37;93859.66;4944097;28;9544;-69
2022/04/12 09:08:48;;;;;;;;;;;;;;;25.10;32.15;93868.88;4946047;28;9104;-70
2022/04/12 09:11:15;;;;;;;;;;;;;;;25.10;32.06;93869.59;5054769;28;9063;-70
2022/04/12 09:14:03;;;;;;;;;;;;;;;25.11;32.46;93878.59;5037289;28;9122;-70
2022/04/12 09:16:42;;;;;;;;;;;;;;;25.14;32.45;93870.03;5041051;28;7209;-69
2022/04/12 09:19:11;;;;;;;;;;;;;;;25.14;32.55;93869.31;5031801;28;6998;-70
2022/04/12 09:21:52;;;;;;;;;;;;;;;25.13;32.49;93862.31;5044305;28;7281;-70
2022/04/12 09:24:24;;;;;;;;;;;;;;;25.16;32.90;93866.78;5047432;28;8773;-70
2022/04/12 09:27:12;;;;;;;;;;;;;;;25.16;32.77;93869.53;5041782;28;7161;-70
2022/04/12 09:30:11;;;;;;;;;;;;;;;25.17;32.71;93868.28;5038389;28;7188;-70
2022/04/12 09:32:40;;;;;;;;;;;;;;;25.19;32.62;93865.75;4985754;28;7508;-70
2022/04/12 09:35:09;;;;;;;;;;;;;;;25.19;32.32;93868.50;4990833;28;7046;-70
2022/04/12 09:37:45;;;;;;;;;;;;;;;25.21;32.80;93865.97;4988964;28;7407;-70
2022/04/12 09:40:20;;;;;;;;;;;;;;;25.19;32.46;93863.75;4986151;28;9072;-69
2022/04/12 09:42:59;;;;;;;;;;;;;;;25.19;32.78;93865.75;4985958;28;7446;-70
2022/04/12 09:46:05;;;;;;;;;;;;;;;25.22;32.92;93861.97;5003952;28;7255;-70
2022/04/12 09:48:52;;;;;;;;;;;;;;;25.23;32.37;93863.44;4945020;28;7690;-69
2022/04/12 09:51:30;;;;;;;;;;;;;;;25.22;32.94;93861.97;4947819;28;8065;-69
2022/04/12 09:54:07;;;;;;;;;;;;;;;25.24;32.60;93865.69;4949742;28;7578;-69
2022/04/12 09:56:56;;;;;;;;;;;;;;;25.25;32.42;93866.44;4967333;28;9654;-70
2022/04/12 09:59:36;;;;;;;;;;;;;;;25.26;32.54;93871.41;4955550;28;8405;-70
2022/04/12 10:02:35;;;;;;;;;;;;;;;25.25;32.62;93867.16;4965462;28;9675;-70
2022/04/12 10:05:03;;;;;;;;;;;;;;;25.27;32.69;93863.91;4945741;28;9525;-70
2022/04/12 10:07:33;;;;;;;;;;;;;;;25.25;32.57;93867.16;4972088;28;7227;-70
2022/04/12 10:10:03;;;;;;;;;;;;;;;25.27;33.15;93866.66;5002982;28;7286;-70
2022/04/12 10:12:37;;;;;;;;;;;;;;;25.27;33.15;93872.16;5016114;28;7329;-70
2022/04/12 10:15:19;;;;;;;;;;;;;;;25.27;32.91;93866.66;5008051;28;7191;-70
2022/04/12 10:17:58;;;;;;;;;;;;;;;25.27;33.39;93863.91;5020086;28;7191;-70
2022/04/12 10:20:59;;;;;;;;;;;;;;;25.28;33.34;93855.09;5006245;28;7232;-70
2022/04/12 10:23:27;;;;;;;;;;;;;;;25.30;33.21;93857.34;4967509;28;9059;-70
2022/04/12 10:26:27;;;;;;;;;;;;;;;25.30;32.74;93852.56;4967751;28;9053;-70
2022/04/12 10:29:06;;;;;;;;;;;;;;;25.32;33.12;93852.06;4930369;29;9053;-70
2022/04/12 10:31:34;;;;;;;;;;;;;;;25.32;32.40;93846.53;4931282;29;9559;-70
2022/04/12 10:34:16;;;;;;;;;;;;;;;25.34;32.75;93841.25;4932002;29;7081;-70
2022/04/12 10:37:07;;;;;;;;;;;;;;;25.33;32.53;93842.53;4927243;29;7028;-70
2022/04/12 10:40:01;;;;;;;;;;;;;;;25.32;33.13;93841.78;4918177;29;7189;-70
2022/04/12 10:42:34;;;;;;;;;;;;;;;25.34;32.88;93844.00;4911627;29;9250;-70
2022/04/12 10:45:06;;;;;;;;;;;;;;;25.33;33.01;93842.53;4919900;29;9018;-70
2022/04/12 10:47:35;;;;;;;;;;;;;;;25.34;32.84;93844.00;4930715;29;9350;-70
2022/04/12 10:50:13;;;;;;;;;;;;;;;25.35;33.05;93845.50;4931372;29;9350;-70
2022/04/12 10:52:49;;;;;;;;;;;;;;;25.35;32.70;93834.50;4920247;29;9190;-70
2022/04/12 10:55:23;;;;;;;;;;;;;;;25.35;32.65;93831.75;4926052;29;7217;-71
2022/04/12 10:57:51;;;;;;;;;;;;;;;25.35;32.98;93823.50;4919221;28;7073;-70
2022/04/12 11:00:29;;;;;;;;;;;;;;;25.34;32.81;93827.50;4981002;28;7238;-71
2022/04/12 11:02:56;;;;;;;;;;;;;;;25.37;32.57;93816.19;4982550;28;7464;-71
2022/04/12 11:05:35;;;;;;;;;;;;;;;25.38;32.80;93816.94;5036859;28;9465;-71
2022/04/12 11:08:14;;;;;;;;;;;;;;;25.37;33.10;93810.69;5046684;28;7377;-71
2022/04/12 11:11:20;;;;;;;;;;;;;;;25.41;32.62;93813.88;5049113;28;7054;-70
2022/04/12 11:14:22;;;;;;;;;;;;;;;25.41;32.68;93813.13;4964726;28;9108;-70
2022/04/12 11:17:09;;;;;;;;;;;;;;;25.43;33.24;93821.63;4942359;29;9447;-70
2022/04/12 11:19:56;;;;;;;;;;;;;;;25.45;33.06;93815.63;4951244;28;7007;-70
2022/04/12 11:22:41;;;;;;;;;;;;;;;25.45;32.77;93821.13;4969457;28;8920;-70
2022/04/12 11:25:26;;;;;;;;;;;;;;;25.42;33.11;93814.66;4959483;28;7277;-70
2022/04/12 11:27:59;;;;;;;;;;;;;;;25.47;32.87;93813.81;4955352;28;7609;-70
2022/04/12 11:30:27;;;;;;;;;;;;;;;25.47;33.06;93813.81;4948099;28;7276;-70
2022/04/12 11:32:56;;;;;;;;;;;;;;;25.47;33.03;93808.31;4958785;28;7660;-70
2022/04/12 11:35:23;;;;;;;;;;;;;;;25.50;32.92;93817.53;4963233;28;9269;-70
2022/04/12 11:37:55;;;;;;;;;;;;;;;25.50;33.34;93807.28;4946736;28;7305;-68
2022/04/12 11:40:24;;;;;;;;;;;;;;;25.50;33.10;93804.50;4952221;28;9116;-68
2022/04/12 11:42:55;;;;;;;;;;;;;;;25.48;33.05;93803.56;4969250;28;7324;-67
2022/04/12 11:45:31;;;;;;;;;;;;;;;25.51;33.43;93808.78;4968531;28;7270;-69
2022/04/12 11:47:58;;;;;;;;;;;;;;;25.53;33.17;93800.72;4966070;28;7916;-68
2022/04/12 11:50:28;;;;;;;;;;;;;;;25.55;32.73;93802.94;5041843;28;9661;-68
2022/04/12 11:53:08;;;;;;;;;;;;;;;25.55;33.27;93806.44;5039361;28;7167;-68
2022/04/12 11:55:53;;;;;;;;;;;;;;;25.57;33.46;93803.91;5055190;28;7480;-68
2022/04/12 11:58:20;;;;;;;;;;;;;;;25.59;33.57;93801.38;5036924;28;9165;-68
2022/04/12 12:00:46;;;;;;;;;;;;;;;25.59;33.08;93801.38;5039699;28;7222;-67
2022/04/12 12:03:21;;;;;;;;;;;;;;;25.61;33.06;93806.34;5038931;28;9096;-68
2022/04/12 12:05:47;;;;;;;;;;;;;;;25.63;33.54;93801.06;5037491;28;8679;-68
2022/04/12 12:08:19;;;;;;;;;;;;;;;25.62;38.34;93803.06;5042593;28;7949;-70
2022/04/12 12:10:47;;;;;;;;;;;;;;;25.66;37.07;93795.25;5039530;28;8200;-68
2022/04/12 12:13:28;;;;;;;;;;;;;;;25.68;35.37;93792.72;5046583;28;7206;-69
2022/04/12 12:16:13;;;;;;;;;;;;;;;25.65;34.94;93793.75;5035226;28;6980;-69
2022/04/12 12:18:39;;;;;;;;;;;;;;;25.68;34.17;93794.72;5044410;28;8836;-69
2022/04/12 12:21:07;;;;;;;;;;;;;;;25.69;34.01;93790.69;5041908;28;7066;-68
2022/04/12 12:23:33;;;;;;;;;;;;;;;25.68;34.11;93789.22;5042581;28;7204;-68
2022/04/12 12:25:59;;;;;;;;;;;;;;;25.69;34.38;93791.44;5043124;28;7853;-68
2022/04/12 12:28:27;;;;;;;;;;;;;;;25.70;33.83;93789.44;5044104;28;7269;-68
2022/04/12 12:31:03;;;;;;;;;;;;;;;25.73;34.68;93780.84;5038220;28;7196;-68
2022/04/12 12:33:41;;;;;;;;;;;;;;;25.74;34.53;93793.38;5036469;28;7232;-68
2022/04/12 12:36:20;;;;;;;;;;;;;;;25.77;33.71;93795.09;5032335;28;7307;-68
2022/04/12 12:38:47;;;;;;;;;;;;;;;25.76;34.00;93796.34;5040054;28;7465;-68
2022/04/12 12:41:25;;;;;;;;;;;;;;;25.79;34.26;93789.03;5043968;28;9138;-68
2022/04/12 12:43:57;;;;;;;;;;;;;;;25.81;34.45;93792.75;5028707;28;7806;-68
2022/04/12 12:46:27;;;;;;;;;;;;;;;25.81;34.57;93790.00;5028751;28;7234;-68
2022/04/12 12:49:08;;;;;;;;;;;;;;;25.84;33.90;93791.69;5030625;28;9023;-68
2022/04/12 12:51:37;;;;;;;;;;;;;;;25.85;34.62;93793.19;5040325;28;7063;-68
2022/04/12 12:54:07;;;;;;;;;;;;;;;25.88;34.38;93791.38;5030348;28;9234;-69
2022/04/12 12:56:35;;;;;;;;;;;;;;;25.87;34.41;93778.88;5034717;28;7578;-72
2022/04/12 12:59:20;;;;;;;;;;;;;;;25.88;34.04;93783.84;5028798;28;7293;-72
2022/04/12 13:01:48;;;;;;;;;;;;;;;25.89;34.28;93777.09;5044509;28;7114;-71
2022/04/12 13:04:23;;;;;;;;;;;;;;;25.91;33.87;93774.53;5038728;28;9063;-71
2022/04/12 13:07:02;;;;;;;;;;;;;;;25.92;34.45;93773.28;5037838;28;7320;-71
2022/04/12 13:09:29;;;;;;;;;;;;;;;25.94;34.48;93772.75;5048758;28;9195;-71
2022/04/12 13:11:55;;;;;;;;;;;;;;;25.96;34.63;93770.94;5038750;28;8899;-71
2022/04/12 13:14:21;;;;;;;;;;;;;;;25.97;33.93;93772.41;5028226;28;9064;-71
2022/04/12 13:16:49;;;;;;;;;;;;;;;25.98;34.56;93760.13;5033316;28;7212;-71
2022/04/12 13:19:36;;;;;;;;;;;;;;;25.96;34.04;93754.41;5042954;28;9232;-71
2022/04/12 13:22:03;;;;;;;;;;;;;;;25.97;34.14;93752.38;5039591;28;9055;-72
2022/04/12 13:24:39;;;;;;;;;;;;;;;25.98;34.28;93746.38;5042321;28;9284;-72
2022/04/12 13:27:18;;;;;;;;;;;;;;;25.96;34.45;93746.16;5036853;28;7588;-75
2022/04/12 13:29:52;;;;;;;;;;;;;;;25.99;34.59;93753.34;5044402;28;7049;-72
2022/04/12 13:32:20;;;;;;;;;;;;;;;26.00;34.33;93746.56;5055239;28;8351;-73